Tiempo atmosférico en la estación meteorológica de Santiago De Compostela, A Coruña (240 m.)



Fecha
DESCASC
Temp. máxima en grados centígrados (hora)
DESCASC
Temp. mínima en grados centígrados (hora)
DESCASC
Temp. media en grados centígrados
DESCASC
Racha de viento máxima en m/sg (hora)
DESCASC
Velocidad máxima media en intervalos de 10 minutos(hora)
DESCASC
Precipitaciones diarias en mm
DESCASC
Precipitaciones de 00:00 a 06:00 en mm
DESCASC
Precipitaciones de 06:00 a 12:00 en mm
DESCASC
Precipitaciones de 12:00 a 18:00 en mm
DESCASC
Precipitaciones de 18:00 a 24:00 en mm
DESCASC
22-11-2020 18.7 (15:30) 4.9 (08:20) 11.8 3.61 (06:10) 1.67 (06:20) 0 0 0 0 0
21-11-2020 21.1 (16:00) 7.4 (09:10) 14.3 5 (00:10) 2.22 (03:10) 0 0 0 0 0
20-11-2020 18 (15:50) 7.8 (08:40) 12.9 7.5 (11:30) 2.78 (22:50) 0 0 0 0 0
19-11-2020 17.3 (14:20) 10.8 (00:00) 14 10.56 (06:30) 4.72 (06:30) 0 0 0 0 0
18-11-2020 18 (16:50) 13.9 (00:00) 15.9 7.78 (05:30) 2.5 (23:50) 9.8 4.7 1.6 0 3.5
17-11-2020 19 (14:10) 4.8 (00:00) 11.9 6.94 (17:40) 3.06 (17:40) 0 0 0 0 0
16-11-2020 16.8 (15:40) 6.3 (00:00) 11.5 2.78 (09:30) 1.11 (22:30) 0 0 0 0 0
15-11-2020 16.3 (04:30) 10.8 (00:00) 13.5 14.44 (03:10) 4.44 (06:00) 38.8 26.1 10.4 2.2 0.1
14-11-2020 15.9 (17:00) 12.8 (00:00) 14.3 10.83 (18:00) 3.61 (23:59) 8 0 0 1.8 6.2
13-11-2020 18.6 (15:00) 9.1 (00:00) 13.9 6.39 (13:50) 2.5 (13:20) 0 0 0 0 0
12-11-2020 19.1 (15:30) 11.8 (00:00) 15.5 6.39 (14:50) 2.78 (14:40) 1.2 1.1 0.1 0 0
11-11-2020 15.4 (14:00) 8 (00:00) 11.7 10.28 (13:10) 2.78 (13:40) 1.4 0 0 0 1.4
10-11-2020 17.6 (16:10) 8.9 (00:00) 13.3 4.17 (12:20) 1.94 (12:30) 0 0 0 0 0
09-11-2020 16.2 (15:30) 10.9 (00:00) 13.6 8.33 (01:10) 2.78 (01:10) 32.7 29.5 3.1 0.1 0
08-11-2020 16.1 (13:00) 12 (00:00) 14.1 11.67 (16:10) 3.33 (16:10) 20.3 5.4 4.3 8.3 2.3
07-11-2020 15.5 (14:00) 11.7 (00:00) 13.6 9.44 (16:50) 2.78 (12:20) 13.8 0 0.6 8.1 5.1
06-11-2020 15.9 (11:30) 12.5 (00:00) 14.2 7.5 (11:30) 2.5 (05:40) 8.5 0 0.3 7.8 0.4
05-11-2020 15.4 (23:10) 9 (00:00) 12.2 8.89 (11:00) 2.78 (05:30) 0 0 0 0 0
04-11-2020 13.1 (15:00) 4.9 (00:00) 9 10.28 (17:00) 3.06 (17:10) 0 0 0 0 0
03-11-2020 13.8 (15:10) 6.2 (00:00) 10 8.61 (15:40) 3.33 (15:50) 0 0 0 0 0
02-11-2020 16.9 (01:20) 7.9 (00:00) 12.4 11.39 (02:00) 4.17 (00:10) 7 2 4.7 0.3 0
01-11-2020 17.2 (14:10) 16.1 (00:00) 16.7 11.11 (21:00) 3.89 (17:20) 15.7 4.1 4.7 3.3 3.6
31-10-2020 16.6 (14:30) 14.4 (00:00) 15.5 11.11 (18:10) 3.89 (12:00) 9 1 1.3 3.6 3.1
30-10-2020 19.4 (14:50) 8.1 (00:00) 13.8 7.78 (13:50) 3.33 (14:00) 0 0 0 0 0
29-10-2020 17 (16:00) 9.5 (00:00) 13.3 5.83 (16:10) 2.5 (12:50) 0 0 0 0 0
28-10-2020 16.9 (14:40) 10.8 (00:00) 13.8 6.39 (17:40) 2.22 (16:10) 0.5 0.1 0.4 0 0
27-10-2020 14.7 (16:10) 11 (00:00) 12.8 10.83 (18:00) 3.89 (17:40) 9.3 0.9 1.8 4.8 1.8
26-10-2020 13.4 (15:00) 6.1 (00:00) 9.7 6.11 (13:10) 2.78 (13:10) 4.8 2.2 0.9 1.6 0.1

Gráficas

Temp. máximas Temp. mínimas Temp. medias Precipitaciones Rachas de viento máximas Velocidades máximas media en intervalos de 10 minutos

Datos horarios

Fecha y hora oficial Temperatura (ºC) Velocidad del viento (km/h) Dirección del viento Racha (km/h) Dirección de racha Precipitación (mm) Presión (hPa) Tendencia (hPa) Humedad (%)
2020-11-24 23:00:00 11.5 0 Calma 19 Oeste 5 -- -- 95
2020-11-24 22:00:00 10.9 8 Sudoeste 30 Oeste 8.5 -- -- 93
2020-11-24 21:00:00 11.7 6 Sur 34 Oeste 6.5 -- -- 93
2020-11-24 20:00:00 12.1 5 Sur 25 Sudeste 1.6 -- -- 89
2020-11-24 19:00:00 12.8 7 Sur 26 Sur 0.1 -- -- 84
2020-11-24 18:00:00 12.5 8 Sur 22 Sur 0 -- -- 87
2020-11-24 17:00:00 12.6 4 Sur 18 Oeste 0.1 -- -- 84
2020-11-24 16:00:00 13.1 4 Sudoeste 19 Oeste 0 -- -- 79
2020-11-24 15:00:00 13.5 4 Sudoeste 20 Oeste 0 -- -- 75
2020-11-24 14:00:00 13.1 4 Sudoeste 12 Sudoeste 0 -- -- 76
2020-11-24 13:00:00 12.4 3 Sur 9 Este 0 -- -- 75
2020-11-24 12:00:00 11.6 0 Calma 11 Sur 0 -- -- 78
2020-11-24 11:00:00 10.5 0 Calma 6 Este 0 -- -- 86
2020-11-24 10:00:00 8.7 0 Calma 5 Sudeste 0 -- -- 96
2020-11-24 09:00:00 7.7 0 Calma -- -- 0 -- -- 96
2020-11-24 08:00:00 7.4 0 Calma 12 Sudeste 0 -- -- 97
2020-11-24 07:00:00 7.9 0 Calma 7 Sur 0 -- -- 97
2020-11-24 06:00:00 7.7 0 Calma -- -- 0 -- -- 97
2020-11-24 05:00:00 5.4 0 Calma -- -- 0 -- -- 97
2020-11-24 04:00:00 5.6 0 Calma -- -- 0 -- -- 97
2020-11-24 03:00:00 6.2 0 Calma -- -- 0 -- -- 96
2020-11-24 02:00:00 6.7 0 Calma -- -- 0 -- -- 96
2020-11-24 01:00:00 7 0 Calma -- -- 0 -- -- 94
2020-11-24 00:00:00 7.2 0 Calma -- -- 0 -- -- 93
2020-11-23 23:00:00 7.5 0 Calma -- -- 0 -- -- 92
2020-11-23 22:00:00 7.9 0 Calma -- -- 0 -- -- 89
2020-11-23 21:00:00 8.8 0 Calma -- -- 0 -- -- 86
2020-11-23 20:00:00 9.6 0 Calma -- -- 0 -- -- 81
2020-11-23 19:00:00 11.1 0 Calma -- -- 0 -- -- 74
2020-11-23 18:00:00 13.7 0 Calma 4 Oeste 0 -- -- 62
2020-11-23 17:00:00 16 2 Oeste 10 Oeste 0 -- -- 55
2020-11-23 16:00:00 16.4 3 Sudoeste 9 Oeste 0 -- -- 55
2020-11-23 15:00:00 16.4 4 Oeste 8 Oeste 0 -- -- 55
2020-11-23 14:00:00 15.4 0 Calma 0 Calma 0 -- -- 58
2020-11-23 13:00:00 13 0 Calma 3 Nordeste 0 -- -- 66
2020-11-23 12:00:00 11.1 3 Nordeste 10 Nordeste 0 -- -- 74
2020-11-23 11:00:00 8.6 5 Nordeste 11 Norte 0 -- -- 84
2020-11-23 10:00:00 6.5 4 Nordeste 12 Nordeste 0 -- -- 96
2020-11-23 09:00:00 4.7 7 Nordeste 14 Nordeste 0 -- -- 94
2020-11-23 08:00:00 4.8 2 Nordeste 10 Norte 0 -- -- 94
2020-11-23 07:00:00 5.6 4 Nordeste 13 Nordeste 0 -- -- 95
2020-11-23 06:00:00 5.6 8 Nordeste 15 Nordeste 0 -- -- 94
2020-11-23 05:00:00 5.7 5 Nordeste 13 Nordeste 0 -- -- 94
2020-11-23 04:00:00 6.4 4 Nordeste 12 Nordeste 0 -- -- 94
2020-11-23 03:00:00 6.9 0 Calma 9 Nordeste 0 -- -- 94
2020-11-23 02:00:00 7.3 0 Calma -- -- 0 -- -- 92
2020-11-23 01:00:00 8.6 0 Calma 8 Nordeste 0 -- -- 92
2020-11-23 00:00:00 8.8 0 Calma 9 Nordeste 0 -- -- 91
2020-11-22 23:00:00 9.4 0 Calma 9 Nordeste 0 -- -- 90
2020-11-22 22:00:00 9.6 4 Nordeste 11 Nordeste 0 -- -- 87
2020-11-22 21:00:00 9.9 5 Nordeste 11 Nordeste 0 -- -- 86
2020-11-22 20:00:00 10.7 4 Nordeste 10 Nordeste 0 -- -- 81
2020-11-22 19:00:00 12.1 0 Calma 0 Calma 0 -- -- 72
2020-11-22 18:00:00 15 0 Calma -- -- 0 -- -- 56
2020-11-22 17:00:00 18 0 Calma 5 Sudoeste 0 -- -- 45
2020-11-22 16:00:00 18.2 0 Calma 7 Oeste 0 -- -- 45
2020-11-22 15:00:00 18.2 0 Calma 8 Oeste 0 -- -- 45
2020-11-22 14:00:00 17.6 4 Oeste 8 Sudoeste 0 -- -- 47
2020-11-22 13:00:00 15.9 0 Calma 4 Sur 0 -- -- 52
2020-11-22 12:00:00 13.2 0 Calma 5 Nordeste 0 -- -- 70
2020-11-22 11:00:00 9.8 3 Nordeste 10 Nordeste 0 -- -- 81
2020-11-22 10:00:00 6.6 4 Nordeste 11 Nordeste 0 -- -- 94
2020-11-22 09:00:00 5.3 4 Nordeste 13 Nordeste 0 -- -- 95
2020-11-22 08:00:00 5.3 6 Nordeste 12 Nordeste 0 -- -- 95
2020-11-22 07:00:00 5.3 3 Nordeste 13 Nordeste 0 -- -- 95
2020-11-22 06:00:00 6.1 5 Nordeste 11 Nordeste 0 -- -- 95
2020-11-22 05:00:00 6.3 0 Calma 9 Nordeste 0 -- -- 95
2020-11-22 04:00:00 7.1 5 Nordeste 10 Nordeste 0 -- -- 95
2020-11-22 03:00:00 7.4 0 Calma 6 Nordeste 0 -- -- 94
2020-11-22 02:00:00 8.2 3 Nordeste 11 Nordeste 0 -- -- 94
2020-11-22 01:00:00 8.4 0 Calma -- -- 0 -- -- 93
2020-11-22 00:00:00 8.8 0 Calma 6 Nordeste 0 -- -- 91
2020-11-21 23:00:00 9.7 4 Nordeste 8 Nordeste 0 -- -- 90
2020-11-21 22:00:00 9.8 0 Calma 6 Nordeste 0 -- -- 89
2020-11-21 21:00:00 10.6 0 Calma 5 Nordeste 0 -- -- 86
2020-11-21 20:00:00 11.8 0 Calma 6 Nordeste 0 -- -- 83
2020-11-21 19:00:00 13.6 0 Calma -- -- 0 -- -- 74
2020-11-21 18:00:00 16.6 0 Calma 6 Oeste 0 -- -- 60
2020-11-21 17:00:00 18.7 0 Calma 10 Sudoeste 0 -- -- 52
2020-11-21 16:00:00 21 2 Oeste 9 Oeste 0 -- -- 43
2020-11-21 15:00:00 20.1 0 Calma 8 Sudeste 0 -- -- 45
2020-11-21 14:00:00 18.3 0 Calma 6 Sudoeste 0 -- -- 52
2020-11-21 13:00:00 17.5 0 Calma 10 Nordeste 0 -- -- 55
2020-11-21 12:00:00 15.3 0 Calma 10 Nordeste 0 -- -- 61
2020-11-21 11:00:00 12.5 4 Nordeste 12 Norte 0 -- -- 70
2020-11-21 10:00:00 9.3 6 Nordeste 15 Nordeste 0 -- -- 83
2020-11-21 09:00:00 7.5 6 Nordeste 14 Nordeste 0 -- -- 85
2020-11-21 08:00:00 7.5 6 Nordeste 12 Nordeste 0 -- -- 84
2020-11-21 07:00:00 8 5 Nordeste 13 Nordeste 0 -- -- 82
2020-11-21 06:00:00 8.2 4 Nordeste 13 Nordeste 0 -- -- 80
2020-11-21 05:00:00 8.6 7 Nordeste 14 Nordeste 0 -- -- 79
2020-11-21 04:00:00 9 6 Nordeste 16 Nordeste 0 -- -- 79
2020-11-21 03:00:00 9.2 5 Nordeste 12 Nordeste 0 -- -- 78
2020-11-21 02:00:00 9.5 0 Calma 15 Nordeste 0 -- -- 76
2020-11-21 01:00:00 10 6 Nordeste 18 Nordeste 0 -- -- 76
2020-11-21 00:00:00 10.3 7 Nordeste 19 Nordeste 0 -- -- 75
2020-11-20 23:00:00 10.4 8 Nordeste 21 Nordeste 0 -- -- 73
2020-11-20 22:00:00 11.3 4 Nordeste 13 Nordeste 0 -- -- 70
2020-11-20 21:00:00 11.9 2 Este 14 Nordeste 0 -- -- 68
2020-11-20 20:00:00 12.6 5 Nordeste 15 Norte 0 -- -- 64
2020-11-20 19:00:00 13.9 0 Calma 14 Nordeste 0 -- -- 63
2020-11-20 18:00:00 15.7 3 Nordeste 12 Nordeste 0 -- -- 55
2020-11-20 17:00:00 17.4 3 Este 17 Nordeste 0 -- -- 48
2020-11-20 16:00:00 17.7 5 Nordeste 15 Nordeste 0 -- -- 49
2020-11-20 15:00:00 17 4 Nordeste 19 Este 0 -- -- 51
2020-11-20 14:00:00 16 5 Nordeste 20 Nordeste 0 -- -- 56
2020-11-20 13:00:00 14.9 6 Nordeste 22 Nordeste 0 -- -- 59
2020-11-20 12:00:00 13.4 7 Nordeste 27 Este 0 -- -- 64
2020-11-20 11:00:00 12 6 Nordeste 17 Nordeste 0 -- -- 71
2020-11-20 10:00:00 9.7 5 Nordeste 13 Nordeste 0 -- -- 84
2020-11-20 09:00:00 7.8 4 Nordeste 10 Nordeste 0 -- -- 89
2020-11-20 08:00:00 8.1 3 Nordeste 13 Nordeste 0 -- -- 88
2020-11-20 07:00:00 8.3 4 Nordeste 20 Nordeste 0 -- -- 87
2020-11-20 06:00:00 8.6 6 Nordeste 20 Nordeste 0 -- -- 86
2020-11-20 05:00:00 8.8 7 Nordeste 18 Nordeste 0 -- -- 86
2020-11-20 04:00:00 9 4 Nordeste 14 Nordeste 0 -- -- 86
2020-11-20 03:00:00 9.5 0 Calma 12 Nordeste 0 -- -- 83
2020-11-20 02:00:00 10.7 2 Nordeste 18 Nordeste 0 -- -- 82
2020-11-20 01:00:00 10.6 7 Nordeste 19 Este 0 -- -- 82
2020-11-20 00:00:00 10.8 5 Nordeste 22 Sudeste 0 -- -- 82
2020-11-19 23:00:00 10.9 4 Nordeste 18 Nordeste 0 -- -- 83
2020-11-19 22:00:00 10.9 5 Nordeste 15 Nordeste 0 -- -- 83
2020-11-19 21:00:00 11.3 0 Calma 10 Sudeste 0 -- -- 81
2020-11-19 20:00:00 11.6 3 Nordeste 18 Nordeste 0 -- -- 78
2020-11-19 19:00:00 12.9 5 Este 26 Nordeste 0 -- -- 77
2020-11-19 18:00:00 13.8 9 Nordeste 31 Nordeste 0 -- -- 77
2020-11-19 17:00:00 14.9 13 Nordeste 35 Nordeste 0 -- -- 71
2020-11-19 16:00:00 16.2 14 Nordeste 31 Nordeste 0 -- -- 67
2020-11-19 15:00:00 16.9 8 Nordeste 26 Nordeste 0 -- -- 67
2020-11-19 14:00:00 17.1 5 Nordeste 19 Nordeste 0 -- -- 67
2020-11-19 13:00:00 16.2 6 Nordeste 19 Norte 0 -- -- 67
2020-11-19 12:00:00 15 6 Nordeste 22 Norte 0 -- -- 71
2020-11-19 11:00:00 14.1 4 Nordeste 14 Norte 0 -- -- 78
2020-11-19 10:00:00 12 4 Nordeste 21 Norte 0 -- -- 91
2020-11-19 09:00:00 11.4 4 Nordeste 15 Nordeste 0 -- -- 91
2020-11-19 08:00:00 11.7 5 Nordeste 27 Nordeste 0 -- -- 92
2020-11-19 07:00:00 12 11 Nordeste 38 Nordeste 0 -- -- 92
2020-11-19 06:00:00 12.2 10 Nordeste 29 Norte 0 -- -- 94
2020-11-19 05:00:00 12.6 5 Nordeste 22 Nordeste 0 -- -- 95
2020-11-19 04:00:00 12.9 7 Nordeste 18 Nordeste 0 -- -- 96
2020-11-19 03:00:00 13.4 8 Nordeste 22 Nordeste 0 -- -- 95
2020-11-19 02:00:00 13.5 6 Nordeste 22 Nordeste 0 -- -- 95
2020-11-19 01:00:00 13.8 10 Nordeste 22 Nordeste 0 -- -- 95
2020-11-19 00:00:00 14.1 6 Nordeste 18 Nordeste 0 -- -- 95
2020-11-18 23:00:00 14.2 2 Nordeste 7 Nordeste 0 -- -- 94
2020-11-18 22:00:00 14.8 0 Calma 13 Nordeste 0 -- -- 92
2020-11-18 21:00:00 15 3 Nordeste 18 Norte 2.9 -- -- 91
2020-11-18 20:00:00 16.3 0 Calma 6 Oeste 0.6 -- -- 87
2020-11-18 19:00:00 16.5 0 Calma 5 Nordeste 0 -- -- 88
2020-11-18 18:00:00 16.9 0 Calma -- -- 0 -- -- 86
2020-11-18 17:00:00 17.5 0 Calma 8 Oeste 0 -- -- 83
2020-11-18 16:00:00 17.7 4 Oeste 16 Sudoeste 0 -- -- 80
2020-11-18 15:00:00 17.6 4 Sudoeste 20 Oeste 0 -- -- 82
2020-11-18 14:00:00 17.2 5 Sudoeste 19 Sudoeste 0 -- -- 86
2020-11-18 13:00:00 16.9 4 Sudoeste 21 Sudoeste 0 -- -- 90
2020-11-18 12:00:00 16.7 5 Sudoeste 17 Sur 0 -- -- 93
2020-11-18 11:00:00 16.3 2 Sudoeste 12 Sudoeste 0 -- -- 96
2020-11-18 10:00:00 15.8 3 Sur 15 Sudoeste 0.2 -- -- 96
2020-11-18 09:00:00 15.5 3 Sur 17 Sur 0.4 -- -- 96
2020-11-18 08:00:00 15.5 3 Sur 14 Sudoeste 1 -- -- 96
2020-11-18 07:00:00 15.5 5 Sur 23 Sudoeste 0 -- -- 96
2020-11-18 06:00:00 15.5 5 Sudoeste 28 Sudoeste 0.7 -- -- 96
2020-11-18 05:00:00 15.5 4 Sur 27 Sudoeste 1.2 -- -- 96
2020-11-18 04:00:00 15.5 5 Sur 28 Sudoeste 0.8 -- -- 96
2020-11-18 03:00:00 15.3 5 Sur 19 Sur 1.3 -- -- 96
2020-11-18 02:00:00 15 4 Sur 15 Sudoeste 0.6 -- -- 95
2020-11-18 01:00:00 14.9 4 Sudoeste 17 Sudoeste 0.1 -- -- 92
2020-11-18 00:00:00 14.6 0 Calma 3 Este 0 -- -- 90
2020-11-17 23:00:00 14.7 0 Calma 5 Sur 0 -- -- 89
2020-11-17 22:00:00 14.6 3 Sudeste 11 Sudeste 0 -- -- 89
2020-11-17 21:00:00 14.7 3 Sur 14 Oeste 0 -- -- 89
2020-11-17 20:00:00 15 2 Sudoeste 18 Oeste 0 -- -- 89
2020-11-17 19:00:00 14.9 8 Oeste 22 Oeste 0 -- -- 89
2020-11-17 18:00:00 15.2 8 Sudoeste 25 Oeste 0 -- -- 80
2020-11-17 17:00:00 16.5 6 Oeste 19 Oeste 0 -- -- 65
2020-11-17 16:00:00 17 6 Oeste 23 Sudoeste 0 -- -- 56
2020-11-17 15:00:00 18.3 9 Sudoeste 22 Sudoeste 0 -- -- 51
2020-11-17 14:00:00 18.9 6 Sudoeste 16 Sudoeste 0 -- -- 49
2020-11-17 13:00:00 18.1 0 Calma 11 Sudeste 0 -- -- 51
2020-11-17 12:00:00 15.6 4 Sudeste 10 Sudeste 0 -- -- 60
2020-11-17 11:00:00 12.6 2 Sudeste 5 Sudeste 0 -- -- 83
2020-11-17 10:00:00 7.9 0 Calma -- -- 0 -- -- 96
2020-11-17 09:00:00 5.5 2 Nordeste 8 Nordeste 0 -- -- 96
2020-11-17 08:00:00 5.2 3 Nordeste 13 Nordeste 0 -- -- 96
2020-11-17 07:00:00 4.9 0 Calma 6 Nordeste 0 -- -- 96
2020-11-17 06:00:00 5.4 2 Nordeste 8 Nordeste 0 -- -- 96
2020-11-17 05:00:00 5.3 0 Calma 15 Nordeste 0 -- -- 96
2020-11-17 04:00:00 6 3 Nordeste 9 Nordeste 0 -- -- 96
2020-11-17 03:00:00 6.1 0 Calma 8 Nordeste 0 -- -- 95
2020-11-17 02:00:00 7 0 Calma 6 Nordeste 0 -- -- 95
2020-11-17 01:00:00 7.7 0 Calma 6 Nordeste 0 -- -- 95
2020-11-17 00:00:00 7.9 0 Calma 8 Nordeste 0 -- -- 94
2020-11-16 23:00:00 8.9 3 Nordeste 9 Nordeste 0 -- -- 93
2020-11-16 22:00:00 9.1 0 Calma 8 Nordeste 0 -- -- 92
2020-11-16 21:00:00 9.7 3 Nordeste 8 Nordeste 0 -- -- 91
2020-11-16 20:00:00 10.4 3 Nordeste 9 Nordeste 0 -- -- 88
2020-11-16 19:00:00 11.6 2 Nordeste 6 Nordeste 0 -- -- 81
2020-11-16 18:00:00 14.1 0 Calma 5 Oeste 0 -- -- 64
2020-11-16 17:00:00 15.9 0 Calma 7 Oeste 0 -- -- 57
2020-11-16 16:00:00 16.2 0 Calma 4 Sudoeste 0 -- -- 61
2020-11-16 15:00:00 15.8 2 Sudeste 7 Oeste 0 -- -- 60
2020-11-16 14:00:00 14.7 2 Norte 7 Sudeste 0 -- -- 74
2020-11-16 13:00:00 13 3 Sur 7 Sudoeste 0 -- -- 85
2020-11-16 12:00:00 10.6 3 Sur 9 Sur 0 -- -- 94
2020-11-16 11:00:00 8.8 3 Sudeste 8 Sudeste 0 -- -- 97
2020-11-16 10:00:00 7.5 2 Nordeste 10 Nordeste 0 -- -- 97
2020-11-16 09:00:00 6.6 0 Calma 6 Nordeste 0 -- -- 97
2020-11-16 08:00:00 6.7 0 Calma -- -- 0 -- -- 96
2020-11-16 07:00:00 6.7 0 Calma -- -- 0 -- -- 96
2020-11-16 06:00:00 7.2 0 Calma 6 Nordeste 0 -- -- 96
2020-11-16 05:00:00 7.8 0 Calma 6 Nordeste 0 -- -- 96
2020-11-16 04:00:00 8.2 0 Calma 8 Nordeste 0 -- -- 96
2020-11-16 03:00:00 8.5 0 Calma -- -- 0 -- -- 95
2020-11-16 02:00:00 9.3 0 Calma 5 Noroeste 0 -- -- 95
2020-11-16 01:00:00 10.2 0 Calma -- -- 0 -- -- 94
2020-11-16 00:00:00 10.8 0 Calma -- -- 0 -- -- 93
2020-11-15 23:00:00 11.3 0 Calma 0 Calma 0 -- -- 93
2020-11-15 22:00:00 11.4 0 Calma -- -- 0 -- -- 92
2020-11-15 21:00:00 12 0 Calma 4 Noroeste 0 -- -- 90
2020-11-15 20:00:00 12.2 0 Calma 9 Norte 0 -- -- 87
2020-11-15 19:00:00 12.8 2 Norte 13 Norte 0.1 -- -- 87
2020-11-15 18:00:00 13.6 0 Calma 8 Sudoeste 0 -- -- 90
2020-11-15 17:00:00 13.8 3 Oeste 15 Noroeste 0.8 -- -- 89
2020-11-15 16:00:00 14.5 2 Oeste 14 Sudoeste 0 -- -- 92
2020-11-15 15:00:00 13.9 3 Sudoeste 13 Oeste 0 -- -- 94
2020-11-15 14:00:00 13.7 4 Oeste 14 Sudoeste 0.3 -- -- 94
2020-11-15 13:00:00 13.7 5 Oeste 19 Oeste 1.1 -- -- 94
2020-11-15 12:00:00 13.9 5 Oeste 24 Oeste 2.7 -- -- 95
2020-11-15 11:00:00 15.9 8 Sudoeste 33 Oeste 4.3 -- -- 95
2020-11-15 10:00:00 15.8 9 Sudoeste 40 Oeste 0.2 -- -- 93
2020-11-15 09:00:00 16.1 13 Sudoeste 38 Oeste 0 -- -- 85
2020-11-15 08:00:00 15.6 12 Sudoeste 30 Oeste 0.1 -- -- 96
2020-11-15 07:00:00 16.1 14 Sudoeste 42 Sudoeste 3.1 -- -- 96
2020-11-15 06:00:00 16 16 Sudoeste 46 Sudoeste 2.5 -- -- 96
2020-11-15 05:00:00 16.2 13 Sudoeste 45 Oeste 5.2 -- -- 96
2020-11-15 04:00:00 16.1 14 Sudoeste 52 Sudoeste 6 -- -- 96
2020-11-15 03:00:00 16 10 Sudoeste 46 Oeste 3.6 -- -- 96
2020-11-15 02:00:00 15.9 12 Sudoeste 42 Oeste 5.8 -- -- 96
2020-11-15 01:00:00 15.8 9 Sudoeste 41 Oeste 3 -- -- 96
2020-11-15 00:00:00 15.8 13 Sudoeste 36 Sudoeste 2.2 -- -- 97
2020-11-14 23:00:00 15.5 6 Sudoeste 26 Oeste 1.1 -- -- 96
2020-11-14 22:00:00 14.9 7 Sudoeste 24 Sur 1.1 -- -- 96
2020-11-14 21:00:00 14.5 5 Sudoeste 24 Sur 0.9 -- -- 96
2020-11-14 20:00:00 14.3 5 Sudoeste 35 Sudoeste 0.5 -- -- 96
2020-11-14 19:00:00 14.2 9 Sudoeste 36 Oeste 0.4 -- -- 95
2020-11-14 18:00:00 15.5 7 Sudoeste 39 Oeste 0 -- -- 94
2020-11-14 17:00:00 15.9 6 Sudoeste 28 Sudoeste 0.2 -- -- 94
2020-11-14 16:00:00 15.4 9 Sudoeste 31 Oeste 1.2 -- -- 94
2020-11-14 15:00:00 15.5 4 Sur 25 Sudoeste 0.2 -- -- 92
2020-11-14 14:00:00 15.6 6 Sur 24 Sur 0.1 -- -- 89
2020-11-14 13:00:00 15 5 Sudoeste 24 Oeste 0.1 -- -- 89
2020-11-14 12:00:00 15.5 5 Sudoeste 22 Sudoeste 0 -- -- 81
2020-11-14 11:00:00 15.5 5 Sudoeste 30 Oeste 0 -- -- 78
2020-11-14 10:00:00 15 6 Sudoeste 24 Oeste 0 -- -- 76
2020-11-14 09:00:00 14.7 5 Sudoeste 17 Oeste 0 -- -- 78
2020-11-14 08:00:00 14.6 6 Sudoeste 19 Sudoeste 0 -- -- 79
2020-11-14 07:00:00 14.1 4 Sur 20 Sudoeste 0 -- -- 79
2020-11-14 06:00:00 14.4 4 Sur 18 Sudoeste 0 -- -- 79
2020-11-14 05:00:00 14.2 5 Sur 16 Sudoeste 0 -- -- 79
2020-11-14 04:00:00 14.2 3 Sur 12 Sudoeste 0 -- -- 80
2020-11-14 03:00:00 13.6 5 Sur 14 Sur 0 -- -- 83
2020-11-14 02:00:00 13.7 2 Sur 10 Sur 0 -- -- 84
2020-11-14 01:00:00 13.6 4 Sudoeste 13 Sudoeste 0 -- -- 85
2020-11-14 00:00:00 12.8 2 Sudoeste 11 Sur 0 -- -- 89
2020-11-13 23:00:00 12.4 0 Calma 4 Sur 0 -- -- 89
2020-11-13 22:00:00 13.1 0 Calma 3 Sur 0 -- -- 86
2020-11-13 21:00:00 13.4 0 Calma 10 Sudoeste 0 -- -- 82
2020-11-13 20:00:00 13.6 5 Sudoeste 12 Sudoeste 0 -- -- 79
2020-11-13 19:00:00 14.1 0 Calma 12 Oeste 0 -- -- 75
2020-11-13 18:00:00 15 0 Calma 14 Sudoeste 0 -- -- 70
2020-11-13 17:00:00 15.9 6 Sudoeste 17 Oeste 0 -- -- 66
2020-11-13 16:00:00 17 7 Sudoeste 21 Oeste 0 -- -- 61
2020-11-13 15:00:00 18.6 6 Oeste 21 Oeste 0 -- -- 59
2020-11-13 14:00:00 17.3 9 Oeste 23 Sudoeste 0 -- -- 60
2020-11-13 13:00:00 17.7 7 Oeste 18 Oeste 0 -- -- 59
2020-11-13 12:00:00 17.3 3 Sur 12 Sudoeste 0 -- -- 60
2020-11-13 11:00:00 15.2 3 Sur 11 Sur 0 -- -- 70
2020-11-13 10:00:00 11 0 Calma -- -- 0 -- -- 95
2020-11-13 09:00:00 9.2 0 Calma -- -- 0 -- -- 95
2020-11-13 08:00:00 9.3 0 Calma 6 Sur 0 -- -- 95
2020-11-13 07:00:00 9.6 0 Calma 8 Sudeste 0 -- -- 94
2020-11-13 06:00:00 10.1 0 Calma 6 Sur 0 -- -- 93
2020-11-13 05:00:00 11.4 0 Calma 6 Sudeste 0 -- -- 93
2020-11-13 04:00:00 11.6 0 Calma -- -- 0 -- -- 90
2020-11-13 03:00:00 12 0 Calma 6 Sudoeste 0 -- -- 87
2020-11-13 02:00:00 12.5 0 Calma 5 Sudoeste 0 -- -- 86
2020-11-13 01:00:00 12.3 0 Calma -- -- 0 -- -- 89
2020-11-13 00:00:00 12.7 0 Calma 0 Calma 0 -- -- 87
2020-11-12 23:00:00 13.2 0 Calma -- -- 0 -- -- 84
2020-11-12 22:00:00 13.9 0 Calma 6 Sudoeste 0 -- -- 79
2020-11-12 21:00:00 14.5 0 Calma 9 Sur 0 -- -- 77
2020-11-12 20:00:00 14.6 0 Calma 9 Oeste 0 -- -- 75
2020-11-12 19:00:00 15 0 Calma 13 Sudoeste 0 -- -- 72
2020-11-12 18:00:00 15.6 4 Sudoeste 17 Sudoeste 0 -- -- 68
2020-11-12 17:00:00 17.1 6 Sudoeste 20 Sudoeste 0 -- -- 59
2020-11-12 16:00:00 18.6 5 Oeste 21 Sudoeste 0 -- -- 55
2020-11-12 15:00:00 18.1 9 Sudoeste 23 Sudoeste 0 -- -- 56
2020-11-12 14:00:00 18.7 6 Sudoeste 20 Oeste 0 -- -- 56
2020-11-12 13:00:00 17.8 8 Oeste 16 Oeste 0 -- -- 59
2020-11-12 12:00:00 17.4 6 Sudoeste 15 Sudoeste 0 -- -- 58
2020-11-12 11:00:00 15.6 3 Sudoeste 10 Sudoeste 0 -- -- 64
2020-11-12 10:00:00 13 0 Calma -- -- 0.1 -- -- 76
2020-11-12 09:00:00 12.3 0 Calma -- -- 0 -- -- 79
2020-11-12 08:00:00 12.4 0 Calma 6 Sudoeste 0 -- -- 83
2020-11-12 07:00:00 12.3 0 Calma 13 Sudoeste 0 -- -- 85
2020-11-12 06:00:00 12.2 0 Calma 8 Sur 0 -- -- 87
2020-11-12 05:00:00 12.4 0 Calma 10 Oeste 0.1 -- -- 90
2020-11-12 04:00:00 12.4 0 Calma 7 Oeste 0.2 -- -- 93
2020-11-12 03:00:00 12.5 2 Sur 13 Oeste 0.3 -- -- 94
2020-11-12 02:00:00 12.4 4 Sudoeste 15 Sur 0.2 -- -- 94
2020-11-12 01:00:00 12.3 3 Sur 12 Sur 0.3 -- -- 94
2020-11-12 00:00:00 12.4 3 Sudoeste 12 Sur 0.3 -- -- 93
2020-11-11 23:00:00 12.5 3 Sudoeste 13 Sur 0.1 -- -- 93
2020-11-11 22:00:00 12.3 3 Sur 16 Sur 0.3 -- -- 93
2020-11-11 21:00:00 12.2 3 Sudoeste 11 Sur 0.2 -- -- 91
2020-11-11 20:00:00 12.1 3 Sudoeste 21 Sur 0.5 -- -- 88
2020-11-11 19:00:00 12.4 4 Sudoeste 19 Oeste 0 -- -- 79
2020-11-11 18:00:00 13.8 10 Sudoeste 29 Oeste 0 -- -- 69
2020-11-11 17:00:00 14.7 6 Sudoeste 35 Oeste 0 -- -- 71
2020-11-11 16:00:00 14.7 8 Sudoeste 26 Sudoeste 0 -- -- 68
2020-11-11 15:00:00 15.1 6 Sudoeste 35 Sur 0 -- -- 64
2020-11-11 14:00:00 15.4 8 Sudoeste 37 Oeste 0 -- -- 61
2020-11-11 13:00:00 14.7 8 Sudoeste 34 Oeste 0 -- -- 64
2020-11-11 12:00:00 14 7 Sudoeste 28 Sudoeste 0 -- -- 68
2020-11-11 11:00:00 13.4 5 Sudoeste 21 Sur 0 -- -- 72
2020-11-11 10:00:00 12.2 3 Sudoeste 10 Oeste 0 -- -- 76
2020-11-11 09:00:00 11 0 Calma 8 Sur 0 -- -- 86
2020-11-11 08:00:00 10 0 Calma -- -- 0 -- -- 91
2020-11-11 07:00:00 9.7 0 Calma -- -- 0 -- -- 94
2020-11-11 06:00:00 9 0 Calma 5 Sudeste 0 -- -- 94
2020-11-11 05:00:00 8.7 0 Calma 8 Sudeste 0 -- -- 94
2020-11-11 04:00:00 8.8 2 Sudeste 7 Sudeste 0 -- -- 95
2020-11-11 03:00:00 8.3 0 Calma 5 Este 0 -- -- 95
2020-11-11 02:00:00 8.5 2 Sudeste 6 Sur 0 -- -- 95
2020-11-11 01:00:00 8.4 0 Calma -- -- 0 -- -- 94
2020-11-11 00:00:00 8.9 0 Calma -- -- 0 -- -- 93
2020-11-10 23:00:00 9.3 0 Calma -- -- 0 -- -- 93
2020-11-10 22:00:00 10.1 0 Calma -- -- 0 -- -- 91
2020-11-10 21:00:00 10.6 0 Calma -- -- 0 -- -- 89
2020-11-10 20:00:00 11.6 0 Calma -- -- 0 -- -- 85
2020-11-10 19:00:00 13.3 0 Calma -- -- 0 -- -- 76
2020-11-10 18:00:00 15.6 0 Calma 7 Oeste 0 -- -- 62
2020-11-10 17:00:00 17 3 Sur 9 Oeste 0 -- -- 56
2020-11-10 16:00:00 17.3 2 Oeste 9 Oeste 0 -- -- 54
2020-11-10 15:00:00 16.8 4 Sudeste 10 Sudeste 0 -- -- 55
2020-11-10 14:00:00 16.4 3 Sur 14 Sur 0 -- -- 56
2020-11-10 13:00:00 15.4 6 Sur 15 Este 0 -- -- 60
2020-11-10 12:00:00 14.1 4 Sudeste 13 Sudeste 0 -- -- 64
2020-11-10 11:00:00 13.3 4 Sudeste 11 Este 0 -- -- 71
2020-11-10 10:00:00 11.6 4 Sudeste 8 Sudeste 0 -- -- 82
2020-11-10 09:00:00 10.5 0 Calma 9 Este 0 -- -- 91
2020-11-10 08:00:00 10.5 0 Calma -- -- 0 -- -- 94
2020-11-10 07:00:00 10.5 0 Calma -- -- 0 -- -- 93
2020-11-10 06:00:00 10.4 0 Calma 5 Sur 0 -- -- 91
2020-11-10 05:00:00 10.8 0 Calma 10 Sudeste 0 -- -- 91
2020-11-10 04:00:00 11.2 0 Calma -- -- 0 -- -- 92
2020-11-10 03:00:00 11.3 0 Calma -- -- 0 -- -- 92
2020-11-10 02:00:00 11.3 0 Calma 7 Sudeste 0 -- -- 93
2020-11-10 01:00:00 11.3 0 Calma 6 Sudeste 0 -- -- 93
2020-11-10 00:00:00 11.3 0 Calma 7 Sudeste 0 -- -- 93
2020-11-09 23:00:00 11 0 Calma 5 Sudeste 0 -- -- 93
2020-11-09 22:00:00 11 0 Calma -- -- 0 -- -- 93
2020-11-09 21:00:00 11.3 0 Calma -- -- 0 -- -- 90
2020-11-09 20:00:00 11.8 0 Calma -- -- 0 -- -- 86
2020-11-09 19:00:00 12.8 0 Calma 4 Oeste 0 -- -- 76
2020-11-09 18:00:00 14 0 Calma 17 Oeste 0 -- -- 68
2020-11-09 17:00:00 15.5 7 Oeste 17 Sudoeste 0 -- -- 65
2020-11-09 16:00:00 15.7 7 Oeste 18 Sudoeste 0 -- -- 66
2020-11-09 15:00:00 15.8 4 Sudoeste 17 Sudoeste 0 -- -- 77
2020-11-09 14:00:00 14.8 7 Oeste 21 Oeste 0 -- -- 79
2020-11-09 13:00:00 14.6 4 Sudoeste 10 Sudoeste 0.1 -- -- 91
2020-11-09 12:00:00 13.3 2 Oeste 21 Oeste 2.8 -- -- 92
2020-11-09 11:00:00 14.2 5 Sudoeste 14 Oeste 0.2 -- -- 94
2020-11-09 10:00:00 13 0 Calma 8 Sudoeste 0 -- -- 96
2020-11-09 09:00:00 12.1 0 Calma 7 Oeste 0 -- -- 97
2020-11-09 08:00:00 12.2 0 Calma 4 Sudoeste 0 -- -- 96
2020-11-09 07:00:00 12.6 0 Calma 9 Sudoeste 0.1 -- -- 96
2020-11-09 06:00:00 12.9 0 Calma 16 Oeste 0.6 -- -- 96
2020-11-09 05:00:00 13 3 Sudoeste 15 Sudoeste 2 -- -- 96
2020-11-09 04:00:00 13 0 Calma 13 Sudoeste 2 -- -- 96
2020-11-09 03:00:00 13.2 5 Sudoeste 21 Oeste 0.2 -- -- 96
2020-11-09 02:00:00 13.1 2 Sudoeste 30 Sudoeste 17.9 -- -- 94
2020-11-09 01:00:00 13.7 8 Oeste 25 Oeste 6.8 -- -- 93
2020-11-09 00:00:00 13.5 6 Sur 25 Sur 0.8 -- -- 92
2020-11-08 23:00:00 13.7 7 Sudoeste 27 Sudoeste 0.5 -- -- 92
2020-11-08 22:00:00 13.6 6 Sudoeste 31 Oeste 0.1 -- -- 92
2020-11-08 21:00:00 13.6 6 Sudoeste 25 Sur 0.9 -- -- 92
2020-11-08 20:00:00 13.7 5 Sudoeste 23 Sur 0 -- -- 92
2020-11-08 19:00:00 13.6 4 Sur 27 Sudoeste 0 -- -- 92
2020-11-08 18:00:00 13.6 7 Sudoeste 29 Oeste 3.2 -- -- 93
2020-11-08 17:00:00 14 8 Oeste 42 Oeste 2.6 -- -- 87
2020-11-08 16:00:00 14.5 8 Sudoeste 35 Oeste 1.7 -- -- 84
2020-11-08 15:00:00 15.6 9 Sudoeste 31 Oeste 0 -- -- 78
2020-11-08 14:00:00 15.1 4 Sudoeste 31 Oeste 0.7 -- -- 83
2020-11-08 13:00:00 15.9 8 Sur 28 Sur 0.1 -- -- 75
2020-11-08 12:00:00 14.8 6 Sur 29 Sur 0.3 -- -- 89
2020-11-08 11:00:00 14.8 5 Sudoeste 22 Oeste 0.1 -- -- 86
2020-11-08 10:00:00 14.1 6 Sudoeste 24 Sudoeste 0.4 -- -- 92
2020-11-08 09:00:00 13 9 Sur 24 Sur 0 -- -- 87
2020-11-08 08:00:00 12.6 0 Calma 14 Sudoeste 0.1 -- -- 91
2020-11-08 07:00:00 12.1 5 Sur 31 Sudoeste 3.4 -- -- 89
2020-11-08 06:00:00 13.3 6 Sudoeste 29 Sur 5.3 -- -- 89
2020-11-08 05:00:00 14.5 6 Sur 24 Sur 0 -- -- 86
2020-11-08 04:00:00 14.1 5 Sur 21 Sur 0 -- -- 89
2020-11-08 03:00:00 14.2 6 Sur 24 Sur 0.1 -- -- 89
2020-11-08 02:00:00 13.9 5 Sur 20 Sur 0 -- -- 90
2020-11-08 01:00:00 13.9 6 Sur 19 Sudeste 0 -- -- 91
2020-11-08 00:00:00 13.9 4 Sur 17 Sur 0 -- -- 92
2020-11-07 23:00:00 13.8 4 Sur 15 Sur 0 -- -- 92
2020-11-07 22:00:00 14 4 Sur 20 Sur 0.1 -- -- 93
2020-11-07 21:00:00 14.2 5 Sur 20 Sudoeste 1 -- -- 93
2020-11-07 20:00:00 14.4 5 Sur 27 Sudoeste 2.3 -- -- 93
2020-11-07 19:00:00 14.5 8 Sudoeste 24 Sur 1.7 -- -- 94
2020-11-07 18:00:00 14.2 4 Sudoeste 19 Oeste 3.3 -- -- 93
2020-11-07 17:00:00 13.5 8 Sudoeste 34 Sudoeste 2.4 -- -- 90
2020-11-07 16:00:00 14.7 6 Sudoeste 27 Sudoeste 1.3 -- -- 90
2020-11-07 15:00:00 14.7 6 Sudoeste 31 Sudoeste 0.2 -- -- 86
2020-11-07 14:00:00 15.4 6 Sur 24 Sur 0.3 -- -- 85
2020-11-07 13:00:00 13.8 8 Sur 29 Sur 0.6 -- -- 90
2020-11-07 12:00:00 13.5 8 Sur 33 Sur 0.4 -- -- 84
2020-11-07 11:00:00 13.8 6 Sur 27 Sur 0.2 -- -- 79
2020-11-07 10:00:00 13.2 6 Sur 21 Sudeste 0 -- -- 79
2020-11-07 09:00:00 12.3 6 Sur 22 Sudeste 0 -- -- 82
2020-11-07 08:00:00 12.4 4 Sur 17 Sur 0 -- -- 82
2020-11-07 07:00:00 11.8 2 Sur 13 Sur 0 -- -- 85
2020-11-07 06:00:00 12.1 5 Sur 14 Sur 0 -- -- 84
2020-11-07 05:00:00 12.3 3 Sur 10 Sur 0 -- -- 82
2020-11-07 04:00:00 12.5 0 Calma 14 Sur 0 -- -- 81
2020-11-07 03:00:00 13 4 Sur 16 Sur 0 -- -- 79
2020-11-07 02:00:00 13 2 Sur 11 Sur 0 -- -- 83
2020-11-07 01:00:00 12.7 4 Sur 14 Sur 0 -- -- 87
2020-11-07 00:00:00 12.6 3 Sur 11 Sudoeste 0 -- -- 92
2020-11-06 23:00:00 12.6 2 Sur 11 Sudeste 0 -- -- 94
2020-11-06 22:00:00 12.6 0 Calma -- -- 0 -- -- 94
2020-11-06 21:00:00 12.7 0 Calma 3 Oeste 0 -- -- 94
2020-11-06 20:00:00 12.7 0 Calma 10 Sur 0 -- -- 94
2020-11-06 19:00:00 12.8 0 Calma 11 Sudoeste 0.4 -- -- 94
2020-11-06 18:00:00 13.2 0 Calma -- -- 0 -- -- 93
2020-11-06 17:00:00 13.3 0 Calma 10 Sudeste 0 -- -- 93
2020-11-06 16:00:00 13 4 Sudeste 16 Sudeste 1 -- -- 91
2020-11-06 15:00:00 12.9 4 Sur 21 Sur 4.1 -- -- 90
2020-11-06 14:00:00 13.7 0 Calma 14 Sur 2.3 -- -- 86
2020-11-06 13:00:00 14.3 2 Sur 17 Sur 0.4 -- -- 75
2020-11-06 12:00:00 15 5 Sur 27 Sur 0.3 -- -- 68
2020-11-06 11:00:00 15.5 3 Sur 23 Sudeste 0 -- -- 63
2020-11-06 10:00:00 14.6 3 Sudeste 15 Sudeste 0 -- -- 65
2020-11-06 09:00:00 13.7 5 Este 15 Este 0 -- -- 68
2020-11-06 08:00:00 13.8 6 Este 16 Sudeste 0 -- -- 67
2020-11-06 07:00:00 14.3 6 Sudeste 19 Sur 0 -- -- 65
2020-11-06 06:00:00 14.5 9 Sudeste 23 Sudeste 0 -- -- 65
2020-11-06 05:00:00 14 5 Este 14 Sudeste 0 -- -- 68
2020-11-06 04:00:00 13.8 0 Calma 8 Nordeste 0 -- -- 69
2020-11-06 03:00:00 14.1 2 Este 14 Este 0 -- -- 70
2020-11-06 02:00:00 13.2 0 Calma 12 Sudeste 0 -- -- 72
2020-11-06 01:00:00 13.5 0 Calma 14 Sudeste 0 -- -- 68
2020-11-06 00:00:00 14.7 4 Este 17 Este 0 -- -- 62
2020-11-05 23:00:00 15.3 5 Este 21 Este 0 -- -- 61
2020-11-05 22:00:00 13.6 2 Sudeste 13 Sudeste 0 -- -- 67
2020-11-05 21:00:00 13.8 0 Calma 14 Sudeste 0 -- -- 66
2020-11-05 20:00:00 13.3 4 Nordeste 13 Nordeste 0 -- -- 68
2020-11-05 19:00:00 12.6 4 Nordeste 14 Nordeste 0 -- -- 68
2020-11-05 18:00:00 12.7 5 Nordeste 16 Nordeste 0 -- -- 68
2020-11-05 17:00:00 12.9 6 Nordeste 22 Nordeste 0 -- -- 66
2020-11-05 16:00:00 12.3 6 Nordeste 21 Nordeste 0 -- -- 67
2020-11-05 15:00:00 12.7 7 Nordeste 26 Nordeste 0 -- -- 64
2020-11-05 14:00:00 12.8 5 Nordeste 19 Este 0 -- -- 64
2020-11-05 13:00:00 12.1 5 Nordeste 24 Nordeste 0 -- -- 64
2020-11-05 12:00:00 11.6 7 Nordeste 25 Nordeste 0 -- -- 64
2020-11-05 11:00:00 11.4 8 Nordeste 32 Este 0 -- -- 63
2020-11-05 10:00:00 10.8 6 Nordeste 23 Norte 0 -- -- 65
2020-11-05 09:00:00 9.7 8 Nordeste 25 Nordeste 0 -- -- 67
2020-11-05 08:00:00 9.3 8 Nordeste 29 Nordeste 0 -- -- 65
2020-11-05 07:00:00 9.3 6 Nordeste 27 Norte 0 -- -- 63
2020-11-05 06:00:00 9 7 Nordeste 29 Nordeste 0 -- -- 63
2020-11-05 05:00:00 9.3 9 Nordeste 31 Nordeste 0 -- -- 62
2020-11-05 04:00:00 9.5 8 Nordeste 24 Este 0 -- -- 61
2020-11-05 03:00:00 9.6 7 Nordeste 26 Norte 0 -- -- 61
2020-11-05 02:00:00 9.7 6 Nordeste 21 Este 0 -- -- 61
2020-11-05 01:00:00 9.8 8 Nordeste 30 Nordeste 0 -- -- 59
2020-11-05 00:00:00 10 8 Nordeste 35 Nordeste 0 -- -- 58
2020-11-04 23:00:00 10 10 Nordeste 36 Nordeste 0 -- -- 59
2020-11-04 22:00:00 9.9 7 Nordeste 35 Nordeste 0 -- -- 58
2020-11-04 21:00:00 9.9 8 Nordeste 27 Nordeste 0 -- -- 60
2020-11-04 20:00:00 10.1 9 Nordeste 36 Nordeste 0 -- -- 59
2020-11-04 19:00:00 10.2 7 Nordeste 37 Nordeste 0 -- -- 57
2020-11-04 18:00:00 10.8 10 Nordeste 33 Nordeste 0 -- -- 54
2020-11-04 17:00:00 12.1 8 Nordeste 37 Nordeste 0 -- -- 49
2020-11-04 16:00:00 12.9 9 Nordeste 28 Nordeste 0 -- -- 47
2020-11-04 15:00:00 12.9 8 Nordeste 30 Nordeste 0 -- -- 53
2020-11-04 14:00:00 11.9 9 Nordeste 27 Nordeste 0 -- -- 56
2020-11-04 13:00:00 11.2 10 Nordeste 27 Nordeste 0 -- -- 60
2020-11-04 12:00:00 10 9 Nordeste 21 Nordeste 0 -- -- 72
2020-11-04 11:00:00 9.6 4 Nordeste 17 Nordeste 0 -- -- 77
2020-11-04 10:00:00 7.8 2 Nordeste 10 Norte 0 -- -- 94
2020-11-04 09:00:00 5 4 Nordeste 11 Nordeste 0 -- -- 94
2020-11-04 08:00:00 5.3 3 Nordeste 10 Nordeste 0 -- -- 94
2020-11-04 07:00:00 5 0 Calma -- -- 0 -- -- 94
2020-11-04 06:00:00 5.3 0 Calma -- -- 0 -- -- 94
2020-11-04 05:00:00 5.6 0 Calma -- -- 0 -- -- 93
2020-11-04 04:00:00 5.7 0 Calma -- -- 0 -- -- 93
2020-11-04 03:00:00 5.5 0 Calma -- -- 0 -- -- 92
2020-11-04 02:00:00 5.8 0 Calma -- -- 0 -- -- 91
2020-11-04 01:00:00 6.2 0 Calma 6 Nordeste 0 -- -- 90
2020-11-04 00:00:00 6.2 0 Calma 7 Norte 0 -- -- 87
2020-11-03 23:00:00 7.1 0 Calma 5 Norte 0 -- -- 85
2020-11-03 22:00:00 7.3 0 Calma 5 Este 0 -- -- 83
2020-11-03 21:00:00 7.5 0 Calma 8 Nordeste 0 -- -- 79
2020-11-03 20:00:00 8.3 0 Calma 8 Nordeste 0 -- -- 72
2020-11-03 19:00:00 9.4 2 Norte 13 Nordeste 0 -- -- 64
2020-11-03 18:00:00 10.9 6 Nordeste 27 Nordeste 0 -- -- 56
2020-11-03 17:00:00 11.9 8 Nordeste 28 Norte 0 -- -- 56
2020-11-03 16:00:00 13.1 9 Nordeste 31 Norte 0 -- -- 52
2020-11-03 15:00:00 13.5 8 Norte 24 Nordeste 0 -- -- 50
2020-11-03 14:00:00 13 7 Nordeste 24 Nordeste 0 -- -- 53
2020-11-03 13:00:00 11.7 5 Nordeste 25 Nordeste 0 -- -- 61
2020-11-03 12:00:00 13.1 8 Nordeste 22 Nordeste 0 -- -- 53
2020-11-03 11:00:00 11.3 6 Norte 16 Nordeste 0 -- -- 67
2020-11-03 10:00:00 10.1 4 Nordeste 10 Norte 0 -- -- 84
2020-11-03 09:00:00 8.3 0 Calma 7 Norte 0 -- -- 92
2020-11-03 08:00:00 8.5 0 Calma 8 Nordeste 0 -- -- 95
2020-11-03 07:00:00 8.3 0 Calma 10 Nordeste 0 -- -- 95
2020-11-03 06:00:00 8.3 0 Calma 12 Nordeste 0 -- -- 95
2020-11-03 05:00:00 7.8 3 Nordeste 9 Nordeste 0 -- -- 95
2020-11-03 04:00:00 7.6 0 Calma 8 Nordeste 0 -- -- 95
2020-11-03 03:00:00 7.9 0 Calma 5 Nordeste 0 -- -- 95
2020-11-03 02:00:00 7.9 0 Calma 6 Sudeste 0 -- -- 94
2020-11-03 01:00:00 7.6 0 Calma 5 Nordeste 0 -- -- 94
2020-11-03 00:00:00 7.9 0 Calma -- -- 0 -- -- 94
2020-11-02 23:00:00 8.5 0 Calma 7 Nordeste 0 -- -- 93
2020-11-02 22:00:00 9 3 Nordeste 6 Nordeste 0 -- -- 91
2020-11-02 21:00:00 9.9 0 Calma -- -- 0 -- -- 89
2020-11-02 20:00:00 11.1 0 Calma -- -- 0 -- -- 85
2020-11-02 19:00:00 12.4 0 Calma 6 Nordeste 0 -- -- 79
2020-11-02 18:00:00 13.8 3 Norte 16 Nordeste 0 -- -- 72
2020-11-02 17:00:00 14.3 0 Calma 15 Norte 0 -- -- 69
2020-11-02 16:00:00 14.9 0 Calma 12 Norte 0 -- -- 74
2020-11-02 15:00:00 14.3 6 Norte 16 Nordeste 0 -- -- 78
2020-11-02 14:00:00 14.4 0 Calma 10 Este 0.1 -- -- 79
2020-11-02 13:00:00 14 5 Norte 12 Nordeste 0.2 -- -- 82
2020-11-02 12:00:00 13.8 0 Calma 20 Norte 0 -- -- 88
2020-11-02 11:00:00 13.8 2 Norte 13 Norte 0.5 -- -- 94
2020-11-02 10:00:00 14.8 0 Calma 22 Sudoeste 1.9 -- -- 96
2020-11-02 09:00:00 16.5 10 Sudoeste 32 Sudoeste 1.1 -- -- 96
2020-11-02 08:00:00 16.5 10 Sudoeste 31 Sudoeste 1 -- -- 96
2020-11-02 07:00:00 16.5 9 Sudoeste 29 Sudoeste 0.2 -- -- 96
2020-11-02 06:00:00 16.6 9 Sudoeste 31 Sudoeste 0.7 -- -- 96
2020-11-02 05:00:00 16.6 9 Sudoeste 31 Sudoeste 0.1 -- -- 96
2020-11-02 04:00:00 16.7 10 Sudoeste 40 Sudoeste 0.2 -- -- 96
2020-11-02 03:00:00 16.8 12 Sudoeste 29 Oeste 0.1 -- -- 96
2020-11-02 02:00:00 16.8 12 Sudoeste 41 Sudoeste 0.3 -- -- 96
2020-11-02 01:00:00 16.7 9 Sudoeste 35 Oeste 0.6 -- -- 96
2020-11-02 00:00:00 16.8 9 Sudoeste 39 Sudoeste 0.1 -- -- 96
2020-11-01 23:00:00 16.6 10 Sudoeste 39 Oeste 1.5 -- -- 96
2020-11-01 22:00:00 16.7 10 Sudoeste 35 Sudoeste 0.4 -- -- 96
2020-11-01 21:00:00 16.6 11 Sudoeste 40 Sudoeste 0.6 -- -- 96
2020-11-01 20:00:00 16.6 10 Sudoeste 33 Sudoeste 0.8 -- -- 96
2020-11-01 19:00:00 16.5 11 Sudoeste 31 Sudoeste 0.2 -- -- 96
2020-11-01 18:00:00 16.6 13 Sudoeste 35 Sudoeste 0.6 -- -- 96
2020-11-01 17:00:00 16.9 12 Sudoeste 37 Sudoeste 0.8 -- -- 96
2020-11-01 16:00:00 16.8 12 Sudoeste 34 Sudoeste 0.6 -- -- 96
2020-11-01 15:00:00 17 11 Sudoeste 31 Sudoeste 0.5 -- -- 96
2020-11-01 14:00:00 17.1 7 Sudoeste 26 Sudoeste 0.5 -- -- 96
2020-11-01 13:00:00 16.9 8 Sudoeste 28 Sudoeste 0.3 -- -- 96
2020-11-01 12:00:00 16.9 9 Sudoeste 28 Oeste 0.3 -- -- 96
2020-11-01 11:00:00 16.8 8 Sudoeste 24 Sudoeste 0.2 -- -- 96
2020-11-01 10:00:00 16.8 6 Sudoeste 28 Sudoeste 0.7 -- -- 96
2020-11-01 09:00:00 16.6 8 Sudoeste 32 Sudoeste 0.8 -- -- 96
2020-11-01 08:00:00 16.5 5 Sudoeste 18 Sudoeste 1 -- -- 96
2020-11-01 07:00:00 16.3 4 Sudoeste 20 Sudoeste 1.7 -- -- 96
2020-11-01 06:00:00 16.4 5 Sudoeste 25 Oeste 0.8 -- -- 96
2020-11-01 05:00:00 16.4 6 Sudoeste 26 Oeste 0.5 -- -- 96
2020-11-01 04:00:00 16.4 8 Sudoeste 25 Sudoeste 0.7 -- -- 96
2020-11-01 03:00:00 16.3 5 Sudoeste 24 Sudoeste 0.4 -- -- 96
2020-11-01 02:00:00 16.2 6 Sudoeste 24 Oeste 1.3 -- -- 96
2020-11-01 01:00:00 16.3 6 Sudoeste 26 Oeste 0.4 -- -- 96
2020-11-01 00:00:00 16.4 7 Sudoeste 24 Oeste 0.5 -- -- 96
2020-10-31 23:00:00 16.3 6 Sudoeste 31 Sudoeste 0.6 -- -- 96
2020-10-31 22:00:00 16.4 7 Sudoeste 33 Oeste 0.5 -- -- 96
2020-10-31 21:00:00 16.5 8 Sudoeste 34 Sudoeste 0.5 -- -- 96
2020-10-31 20:00:00 16.5 9 Sudoeste 37 Sudoeste 0.5 -- -- 96
2020-10-31 19:00:00 16.6 11 Sudoeste 40 Oeste 0.5 -- -- 96
2020-10-31 18:00:00 16.5 11 Sudoeste 33 Oeste 0.1 -- -- 96
2020-10-31 17:00:00 16.4 10 Sudoeste 33 Sudoeste 0.6 -- -- 96
2020-10-31 16:00:00 16.4 12 Sudoeste 38 Sudoeste 0.4 -- -- 96
2020-10-31 15:00:00 16.5 9 Sudoeste 30 Sudoeste 0.7 -- -- 96
2020-10-31 14:00:00 16.3 7 Sudoeste 37 Oeste 1.3 -- -- 96
2020-10-31 13:00:00 16.3 11 Sudoeste 35 Oeste 0.5 -- -- 96
2020-10-31 12:00:00 16.4 14 Sudoeste 39 Oeste 0.5 -- -- 96
2020-10-31 11:00:00 16.1 9 Sudoeste 28 Sur 0.4 -- -- 96
2020-10-31 10:00:00 15.9 8 Sudoeste 30 Oeste 0.1 -- -- 96
2020-10-31 09:00:00 15.6 7 Sudoeste 22 Sudoeste 0 -- -- 96
2020-10-31 08:00:00 15.4 5 Sur 22 Oeste 0.2 -- -- 96
2020-10-31 07:00:00 15.4 5 Sudoeste 27 Sur 0.1 -- -- 96
2020-10-31 06:00:00 15.2 8 Sudoeste 32 Sur 0.1 -- -- 96
2020-10-31 05:00:00 15 6 Sudoeste 25 Oeste 0.2 -- -- 95
2020-10-31 04:00:00 14.8 6 Sudoeste 23 Sur 0.2 -- -- 95
2020-10-31 03:00:00 14.5 6 Sudoeste 22 Sudoeste 0.5 -- -- 95
2020-10-31 02:00:00 14.5 5 Sudoeste 18 Sur 0 -- -- 93
2020-10-31 01:00:00 14.9 7 Sudoeste 19 Oeste 0 -- -- 87
2020-10-31 00:00:00 14.7 4 Sudoeste 12 Oeste 0 -- -- 85
2020-10-30 23:00:00 14.4 4 Oeste 13 Sudoeste 0 -- -- 85
2020-10-30 22:00:00 14.3 4 Sudoeste 12 Oeste 0 -- -- 84
2020-10-30 21:00:00 14.5 3 Sudoeste 14 Oeste 0 -- -- 79
2020-10-30 20:00:00 15 2 Sudoeste 21 Sudoeste 0 -- -- 75
2020-10-30 19:00:00 15.5 5 Oeste 25 Sudoeste 0 -- -- 71
2020-10-30 18:00:00 16.8 5 Oeste 16 Oeste 0 -- -- 71
2020-10-30 17:00:00 18.5 7 Sudoeste 23 Sudoeste 0 -- -- 64
2020-10-30 16:00:00 19 9 Sudoeste 23 Oeste 0 -- -- 62
2020-10-30 15:00:00 19.1 5 Sudoeste 27 Sudoeste 0 -- -- 60
2020-10-30 14:00:00 18.3 12 Sudoeste 28 Oeste 0 -- -- 60
2020-10-30 13:00:00 18.1 6 Sudoeste 20 Sudoeste 0 -- -- 62
2020-10-30 12:00:00 17.6 5 Sudoeste 13 Sudoeste 0 -- -- 64
2020-10-30 11:00:00 15.7 4 Sudoeste 10 Oeste 0 -- -- 72
2020-10-30 10:00:00 12 0 Calma -- -- 0 -- -- 96
2020-10-30 09:00:00 9 0 Calma 5 Nordeste 0 -- -- 96
2020-10-30 08:00:00 8.4 0 Calma 4 Nordeste 0 -- -- 96
2020-10-30 07:00:00 8.4 0 Calma 3 Nordeste 0 -- -- 95
2020-10-30 06:00:00 8.4 0 Calma -- -- 0 -- -- 94
2020-10-30 05:00:00 9.5 0 Calma -- -- 0 -- -- 91
2020-10-30 04:00:00 10.6 0 Calma -- -- 0 -- -- 88
2020-10-30 03:00:00 11.5 0 Calma 8 Sudeste 0 -- -- 86
2020-10-30 02:00:00 11.7 0 Calma 10 Sudeste 0 -- -- 87
2020-10-30 01:00:00 11.2 0 Calma -- -- 0 -- -- 93
2020-10-30 00:00:00 9.9 0 Calma -- -- 0 -- -- 92
2020-10-29 23:00:00 9.6 0 Calma -- -- 0 -- -- 90
2020-10-29 22:00:00 10 0 Calma -- -- 0 -- -- 85
2020-10-29 21:00:00 11.5 0 Calma 3 Oeste 0 -- -- 76
2020-10-29 20:00:00 12.7 0 Calma 11 Sudoeste 0 -- -- 70
2020-10-29 19:00:00 13.5 4 Sudoeste 13 Oeste 0 -- -- 68
2020-10-29 18:00:00 14.8 5 Sudoeste 18 Oeste 0 -- -- 60
2020-10-29 17:00:00 15.8 6 Sudoeste 21 Sudoeste 0 -- -- 56
2020-10-29 16:00:00 16.6 6 Sudoeste 21 Oeste 0 -- -- 55
2020-10-29 15:00:00 16.7 8 Sudoeste 20 Oeste 0 -- -- 56
2020-10-29 14:00:00 16 9 Sudoeste 20 Sudoeste 0 -- -- 57
2020-10-29 13:00:00 15.1 7 Sudoeste 18 Oeste 0 -- -- 62
2020-10-29 12:00:00 15 5 Sudoeste 18 Sudoeste 0 -- -- 65
2020-10-29 11:00:00 15.4 5 Sudoeste 14 Sudoeste 0 -- -- 65
2020-10-29 10:00:00 14.5 3 Sur 8 Sudoeste 0 -- -- 73
2020-10-29 09:00:00 12.3 0 Calma 5 Sudeste 0 -- -- 88
2020-10-29 08:00:00 12 0 Calma -- -- 0 -- -- 93
2020-10-29 07:00:00 12.1 0 Calma -- -- 0 -- -- 93
2020-10-29 06:00:00 12.1 0 Calma -- -- 0 -- -- 93
2020-10-29 05:00:00 12.2 0 Calma 3 Sur 0 -- -- 93
2020-10-29 04:00:00 12.4 0 Calma 7 Sudeste 0 -- -- 93
2020-10-29 03:00:00 12.3 0 Calma 7 Sudeste 0 -- -- 93
2020-10-29 02:00:00 12.4 0 Calma 5 Sudeste 0 -- -- 93
2020-10-29 01:00:00 12.4 0 Calma -- -- 0 -- -- 93
2020-10-29 00:00:00 12.4 0 Calma 2 Oeste 0 -- -- 92
2020-10-28 23:00:00 12.7 0 Calma 8 Sudoeste 0 -- -- 92
2020-10-28 22:00:00 12.9 0 Calma 6 Sur 0 -- -- 89
2020-10-28 21:00:00 12.9 0 Calma 11 Oeste 0 -- -- 86
2020-10-28 20:00:00 12.9 0 Calma 11 Oeste 0 -- -- 82
2020-10-28 19:00:00 13.3 3 Sudoeste 15 Sudoeste 0 -- -- 80
2020-10-28 18:00:00 13.9 6 Sudoeste 23 Sudoeste 0 -- -- 77
2020-10-28 17:00:00 14.8 3 Sudoeste 21 Sudoeste 0 -- -- 72
2020-10-28 16:00:00 15.6 6 Sudoeste 18 Sudoeste 0 -- -- 66
2020-10-28 15:00:00 16.1 7 Oeste 17 Sudoeste 0 -- -- 63
2020-10-28 14:00:00 16 7 Sudoeste 18 Sudoeste 0 -- -- 67
2020-10-28 13:00:00 14.8 2 Sudoeste 14 Oeste 0 -- -- 80
2020-10-28 12:00:00 13.5 5 Sudoeste 17 Oeste 0.1 -- -- 87
2020-10-28 11:00:00 13.9 4 Sudoeste 13 Oeste 0 -- -- 89
2020-10-28 10:00:00 12.3 2 Sudoeste 10 Sudoeste 0 -- -- 97
2020-10-28 09:00:00 11.6 0 Calma 10 Sudoeste 0.3 -- -- 97
2020-10-28 08:00:00 11.2 0 Calma -- -- 0 -- -- 97
2020-10-28 07:00:00 10.9 0 Calma -- -- 0 -- -- 97
2020-10-28 06:00:00 11.4 0 Calma -- -- 0.1 -- -- 97
2020-10-28 05:00:00 11.3 0 Calma -- -- 0 -- -- 97
2020-10-28 04:00:00 11.7 0 Calma -- -- 0 -- -- 97
2020-10-28 03:00:00 12 0 Calma 8 Sudoeste 0 -- -- 96
2020-10-28 02:00:00 12.6 0 Calma 8 Sur 0 -- -- 96
2020-10-28 01:00:00 13 0 Calma 7 Oeste 0 -- -- 96
2020-10-28 00:00:00 13 0 Calma 9 Oeste 0 -- -- 96
2020-10-27 23:00:00 13 0 Calma 7 Sudoeste 0.1 -- -- 96
2020-10-27 22:00:00 13.1 3 Sudoeste 15 Oeste 0.3 -- -- 97
2020-10-27 21:00:00 13.2 0 Calma 7 Sudeste 0.1 -- -- 96
2020-10-27 20:00:00 13.5 0 Calma 8 Sudoeste 0.1 -- -- 97
2020-10-27 19:00:00 13.5 0 Calma 35 Oeste 1.2 -- -- 96
2020-10-27 18:00:00 14.6 14 Sudoeste 39 Oeste 0.9 -- -- 96
2020-10-27 17:00:00 14.7 9 Sudoeste 28 Sudoeste 0.7 -- -- 95
2020-10-27 16:00:00 14.5 7 Sudoeste 28 Oeste 0.5 -- -- 95
2020-10-27 15:00:00 14.1 8 Sudoeste 30 Sudoeste 0.4 -- -- 94
2020-10-27 14:00:00 13.7 7 Sudoeste 29 Sur 1.1 -- -- 94
2020-10-27 13:00:00 13.6 7 Sudoeste 28 Oeste 1.2 -- -- 94
2020-10-27 12:00:00 13.2 9 Sudoeste 26 Oeste 0.4 -- -- 93
2020-10-27 11:00:00 13.1 6 Sudoeste 29 Oeste 0.1 -- -- 93
2020-10-27 10:00:00 12.8 8 Sudoeste 33 Oeste 0 -- -- 94
2020-10-27 09:00:00 12.5 8 Sudoeste 30 Oeste 0.1 -- -- 95
2020-10-27 08:00:00 11.9 10 Sudoeste 29 Oeste 0.2 -- -- 96
2020-10-27 07:00:00 11.5 4 Sudoeste 31 Oeste 1 -- -- 96
2020-10-27 06:00:00 11.4 10 Sudoeste 31 Oeste 0.4 -- -- 94
2020-10-27 05:00:00 11.6 4 Sudoeste 23 Oeste 0.3 -- -- 94
2020-10-27 04:00:00 11.6 9 Sudoeste 31 Sudoeste 0.2 -- -- 93
2020-10-27 03:00:00 11.6 8 Sudoeste 28 Sudoeste 0 -- -- 90
2020-10-27 02:00:00 11.6 6 Sudoeste 25 Oeste 0 -- -- 91
2020-10-27 01:00:00 11.3 6 Sudoeste 24 Oeste 0 -- -- 93
2020-10-27 00:00:00 11.1 5 Sudoeste 21 Sudoeste 0 -- -- 93
2020-10-26 23:00:00 10.6 0 Calma 18 Sudoeste 0 -- -- 95
2020-10-26 22:00:00 10.3 0 Calma 6 Sudoeste 0 -- -- 94
2020-10-26 21:00:00 10.5 0 Calma 6 Sudoeste 0 -- -- 93
2020-10-26 20:00:00 10.7 3 Sudoeste 11 Sudoeste 0.1 -- -- 93
2020-10-26 19:00:00 10.9 0 Calma 6 Sur 0 -- -- 91
2020-10-26 18:00:00 11.3 0 Calma 6 Oeste 0.1 -- -- 89
2020-10-26 17:00:00 11.4 0 Calma 10 Norte 0.9 -- -- 87
2020-10-26 16:00:00 12.7 0 Calma 20 Sudoeste 0.2 -- -- 82
2020-10-26 15:00:00 13.1 5 Oeste 13 Oeste 0 -- -- 80
2020-10-26 14:00:00 11.8 4 Sudoeste 22 Oeste 0.4 -- -- 82
2020-10-26 13:00:00 12.9 9 Oeste 20 Oeste 0 -- -- 75
2020-10-26 12:00:00 11.7 6 Oeste 14 Oeste 0 -- -- 85
2020-10-26 11:00:00 9.7 4 Sudoeste 8 Oeste 0.2 -- -- 97
2020-10-26 10:00:00 8 0 Calma 7 Sudoeste 0.7 -- -- 97
2020-10-26 09:00:00 7 0 Calma -- -- 0 -- -- 98
2020-10-26 08:00:00 6.2 0 Calma 4 Este 0 -- -- 97
2020-10-26 07:00:00 6.3 0 Calma -- -- 0 -- -- 98
2020-10-26 06:00:00 6.2 0 Calma -- -- 0 -- -- 97
2020-10-26 05:00:00 6.8 0 Calma -- -- 0 -- -- 97
2020-10-26 04:00:00 6.9 0 Calma -- -- 0.6 -- -- 97
2020-10-26 03:00:00 6.5 0 Calma 4 Sudeste 0 -- -- 96
2020-10-26 02:00:00 6.9 0 Calma 8 Sudeste 0 -- -- 94
2020-10-26 01:00:00 7.5 0 Calma 10 Sudoeste 1.6 -- -- 93
2020-10-26 00:00:00 7.7 4 Norte 14 Nordeste 3.9 -- -- 92